sensor_id;sensor_type;location;lat;lon;timestamp;P1;durP1;ratioP1;P2;durP2;ratioP2
12968;SDS011;6549;53.128;8.182;2023-05-16T00:02:39;10.30;;;2.42;;
12968;SDS011;6549;53.128;8.182;2023-05-16T00:05:39;11.85;;;2.22;;
12968;SDS011;6549;53.128;8.182;2023-05-16T00:08:39;13.80;;;2.67;;
12968;SDS011;6549;53.128;8.182;2023-05-16T00:11:40;13.85;;;2.35;;
12968;SDS011;6549;53.128;8.182;2023-05-16T00:14:40;13.57;;;2.70;;
12968;SDS011;6549;53.128;8.182;2023-05-16T00:17:41;14.25;;;2.60;;
12968;SDS011;6549;53.128;8.182;2023-05-16T00:20:45;9.18;;;2.63;;
12968;SDS011;6549;53.128;8.182;2023-05-16T00:23:46;12.35;;;2.67;;
12968;SDS011;6549;53.128;8.182;2023-05-16T00:26:46;8.00;;;2.17;;
12968;SDS011;6549;53.128;8.182;2023-05-16T00:29:47;13.02;;;2.50;;
12968;SDS011;6549;53.128;8.182;2023-05-16T00:32:47;9.27;;;2.00;;
12968;SDS011;6549;53.128;8.182;2023-05-16T00:35:47;12.10;;;2.15;;
12968;SDS011;6549;53.128;8.182;2023-05-16T00:38:48;12.32;;;2.03;;
12968;SDS011;6549;53.128;8.182;2023-05-16T00:41:48;9.70;;;2.25;;
12968;SDS011;6549;53.128;8.182;2023-05-16T00:44:48;11.77;;;2.63;;
12968;SDS011;6549;53.128;8.182;2023-05-16T00:47:49;10.15;;;2.20;;
12968;SDS011;6549;53.128;8.182;2023-05-16T00:50:50;12.98;;;2.70;;
12968;SDS011;6549;53.128;8.182;2023-05-16T00:53:52;10.25;;;2.40;;
12968;SDS011;6549;53.128;8.182;2023-05-16T00:56:54;10.27;;;1.98;;
12968;SDS011;6549;53.128;8.182;2023-05-16T00:59:55;11.27;;;2.67;;
12968;SDS011;6549;53.128;8.182;2023-05-16T01:02:55;9.73;;;2.10;;
12968;SDS011;6549;53.128;8.182;2023-05-16T01:05:56;12.77;;;2.65;;
12968;SDS011;6549;53.128;8.182;2023-05-16T01:08:56;11.77;;;2.20;;
12968;SDS011;6549;53.128;8.182;2023-05-16T01:15:24;10.00;;;2.42;;
12968;SDS011;6549;53.128;8.182;2023-05-16T01:21:48;9.40;;;2.30;;
12968;SDS011;6549;53.128;8.182;2023-05-16T01:28:01;12.60;;;2.20;;
12968;SDS011;6549;53.128;8.182;2023-05-16T01:31:02;12.98;;;2.40;;
12968;SDS011;6549;53.128;8.182;2023-05-16T01:34:02;9.02;;;2.03;;
12968;SDS011;6549;53.128;8.182;2023-05-16T01:37:12;14.13;;;2.40;;
12968;SDS011;6549;53.128;8.182;2023-05-16T01:40:23;16.05;;;2.95;;
12968;SDS011;6549;53.128;8.182;2023-05-16T01:43:51;11.48;;;2.65;;
12968;SDS011;6549;53.128;8.182;2023-05-16T01:46:58;11.05;;;2.88;;
12968;SDS011;6549;53.128;8.182;2023-05-16T01:50:13;15.98;;;2.45;;
12968;SDS011;6549;53.128;8.182;2023-05-16T01:53:15;14.25;;;2.53;;
12968;SDS011;6549;53.128;8.182;2023-05-16T01:56:19;14.57;;;2.65;;
12968;SDS011;6549;53.128;8.182;2023-05-16T01:59:21;12.60;;;2.35;;
12968;SDS011;6549;53.128;8.182;2023-05-16T02:02:23;13.63;;;2.08;;
12968;SDS011;6549;53.128;8.182;2023-05-16T02:05:23;13.98;;;2.45;;
12968;SDS011;6549;53.128;8.182;2023-05-16T02:08:23;11.48;;;2.20;;
12968;SDS011;6549;53.128;8.182;2023-05-16T02:11:25;12.98;;;2.28;;
12968;SDS011;6549;53.128;8.182;2023-05-16T02:14:25;15.85;;;2.80;;
12968;SDS011;6549;53.128;8.182;2023-05-16T02:17:26;14.23;;;2.45;;
12968;SDS011;6549;53.128;8.182;2023-05-16T02:20:26;14.02;;;2.75;;
12968;SDS011;6549;53.128;8.182;2023-05-16T02:23:26;11.75;;;2.10;;
12968;SDS011;6549;53.128;8.182;2023-05-16T02:26:27;16.40;;;3.03;;
12968;SDS011;6549;53.128;8.182;2023-05-16T02:29:27;17.30;;;2.47;;
12968;SDS011;6549;53.128;8.182;2023-05-16T02:32:27;19.90;;;2.78;;
12968;SDS011;6549;53.128;8.182;2023-05-16T02:35:28;11.05;;;2.35;;
12968;SDS011;6549;53.128;8.182;2023-05-16T02:38:28;12.20;;;2.35;;
12968;SDS011;6549;53.128;8.182;2023-05-16T02:41:28;13.63;;;2.40;;
12968;SDS011;6549;53.128;8.182;2023-05-16T02:44:30;16.13;;;2.30;;
12968;SDS011;6549;53.128;8.182;2023-05-16T02:47:30;10.05;;;1.90;;
12968;SDS011;6549;53.128;8.182;2023-05-16T02:50:31;10.98;;;1.77;;
12968;SDS011;6549;53.128;8.182;2023-05-16T02:53:32;13.02;;;2.35;;
12968;SDS011;6549;53.128;8.182;2023-05-16T02:56:32;10.68;;;1.73;;
12968;SDS011;6549;53.128;8.182;2023-05-16T02:59:33;16.35;;;2.20;;
12968;SDS011;6549;53.128;8.182;2023-05-16T03:02:33;14.57;;;2.30;;
12968;SDS011;6549;53.128;8.182;2023-05-16T03:05:33;14.13;;;2.40;;
12968;SDS011;6549;53.128;8.182;2023-05-16T03:08:34;12.32;;;2.22;;
12968;SDS011;6549;53.128;8.182;2023-05-16T03:11:35;11.63;;;1.90;;
12968;SDS011;6549;53.128;8.182;2023-05-16T03:14:35;10.60;;;2.05;;
12968;SDS011;6549;53.128;8.182;2023-05-16T03:17:35;10.38;;;1.70;;
12968;SDS011;6549;53.128;8.182;2023-05-16T03:20:36;13.45;;;2.28;;
12968;SDS011;6549;53.128;8.182;2023-05-16T03:23:37;12.23;;;1.70;;
12968;SDS011;6549;53.128;8.182;2023-05-16T03:26:37;11.10;;;1.88;;
12968;SDS011;6549;53.128;8.182;2023-05-16T03:29:38;10.10;;;1.88;;
12968;SDS011;6549;53.128;8.182;2023-05-16T03:32:38;7.00;;;2.00;;
12968;SDS011;6549;53.128;8.182;2023-05-16T03:35:38;7.65;;;1.58;;
12968;SDS011;6549;53.128;8.182;2023-05-16T03:38:39;12.95;;;2.10;;
12968;SDS011;6549;53.128;8.182;2023-05-16T03:41:40;8.55;;;2.25;;
12968;SDS011;6549;53.128;8.182;2023-05-16T03:44:40;10.88;;;1.92;;
12968;SDS011;6549;53.128;8.182;2023-05-16T03:47:41;9.35;;;2.00;;
12968;SDS011;6549;53.128;8.182;2023-05-16T03:50:41;8.90;;;2.05;;
12968;SDS011;6549;53.128;8.182;2023-05-16T03:53:41;11.18;;;1.92;;
12968;SDS011;6549;53.128;8.182;2023-05-16T03:56:42;9.60;;;2.00;;
12968;SDS011;6549;53.128;8.182;2023-05-16T03:59:42;13.13;;;2.20;;
12968;SDS011;6549;53.128;8.182;2023-05-16T04:02:43;9.48;;;1.90;;
12968;SDS011;6549;53.128;8.182;2023-05-16T04:05:43;8.40;;;1.98;;
12968;SDS011;6549;53.128;8.182;2023-05-16T04:08:44;10.07;;;2.13;;
12968;SDS011;6549;53.128;8.182;2023-05-16T04:11:44;7.88;;;1.70;;
12968;SDS011;6549;53.128;8.182;2023-05-16T04:14:45;13.07;;;2.05;;
12968;SDS011;6549;53.128;8.182;2023-05-16T04:17:46;13.95;;;2.17;;
12968;SDS011;6549;53.128;8.182;2023-05-16T04:20:46;9.10;;;2.03;;
12968;SDS011;6549;53.128;8.182;2023-05-16T04:23:46;8.60;;;2.10;;
12968;SDS011;6549;53.128;8.182;2023-05-16T04:26:47;9.30;;;1.92;;
12968;SDS011;6549;53.128;8.182;2023-05-16T04:29:47;7.65;;;1.92;;
12968;SDS011;6549;53.128;8.182;2023-05-16T04:32:48;7.05;;;1.67;;
12968;SDS011;6549;53.128;8.182;2023-05-16T04:35:48;10.18;;;2.15;;
12968;SDS011;6549;53.128;8.182;2023-05-16T04:38:48;13.02;;;2.38;;
12968;SDS011;6549;53.128;8.182;2023-05-16T04:41:49;15.00;;;2.17;;
12968;SDS011;6549;53.128;8.182;2023-05-16T04:44:49;8.18;;;2.00;;
12968;SDS011;6549;53.128;8.182;2023-05-16T04:47:49;11.77;;;1.92;;
12968;SDS011;6549;53.128;8.182;2023-05-16T04:50:50;17.02;;;2.45;;
12968;SDS011;6549;53.128;8.182;2023-05-16T04:53:51;11.27;;;2.00;;
12968;SDS011;6549;53.128;8.182;2023-05-16T04:56:51;12.80;;;2.60;;
12968;SDS011;6549;53.128;8.182;2023-05-16T04:59:52;14.02;;;2.10;;
12968;SDS011;6549;53.128;8.182;2023-05-16T05:02:52;10.75;;;2.22;;
12968;SDS011;6549;53.128;8.182;2023-05-16T05:05:52;11.57;;;1.85;;
12968;SDS011;6549;53.128;8.182;2023-05-16T05:08:53;13.45;;;1.83;;
12968;SDS011;6549;53.128;8.182;2023-05-16T05:11:53;8.10;;;1.85;;
12968;SDS011;6549;53.128;8.182;2023-05-16T05:14:54;11.93;;;2.30;;
12968;SDS011;6549;53.128;8.182;2023-05-16T05:17:54;7.30;;;1.60;;
12968;SDS011;6549;53.128;8.182;2023-05-16T05:20:54;17.73;;;2.95;;
12968;SDS011;6549;53.128;8.182;2023-05-16T05:23:55;10.95;;;2.20;;
12968;SDS011;6549;53.128;8.182;2023-05-16T05:26:55;9.57;;;1.77;;
12968;SDS011;6549;53.128;8.182;2023-05-16T05:29:55;9.63;;;2.00;;
12968;SDS011;6549;53.128;8.182;2023-05-16T05:32:56;8.90;;;2.05;;
12968;SDS011;6549;53.128;8.182;2023-05-16T05:35:56;12.57;;;2.08;;
12968;SDS011;6549;53.128;8.182;2023-05-16T05:38:56;6.75;;;1.73;;
12968;SDS011;6549;53.128;8.182;2023-05-16T05:41:57;10.10;;;1.65;;
12968;SDS011;6549;53.128;8.182;2023-05-16T05:44:57;11.85;;;2.30;;
12968;SDS011;6549;53.128;8.182;2023-05-16T05:47:58;9.73;;;1.85;;
12968;SDS011;6549;53.128;8.182;2023-05-16T05:50:58;12.38;;;2.20;;
12968;SDS011;6549;53.128;8.182;2023-05-16T05:53:58;15.73;;;2.10;;
12968;SDS011;6549;53.128;8.182;2023-05-16T05:56:59;8.50;;;2.00;;
12968;SDS011;6549;53.128;8.182;2023-05-16T05:59:59;6.38;;;1.42;;
12968;SDS011;6549;53.128;8.182;2023-05-16T06:02:59;10.82;;;1.73;;
12968;SDS011;6549;53.128;8.182;2023-05-16T06:06:00;6.55;;;1.60;;
12968;SDS011;6549;53.128;8.182;2023-05-16T06:09:00;14.52;;;2.60;;
12968;SDS011;6549;53.128;8.182;2023-05-16T06:12:00;10.13;;;1.73;;
12968;SDS011;6549;53.128;8.182;2023-05-16T06:15:01;15.35;;;2.40;;
12968;SDS011;6549;53.128;8.182;2023-05-16T06:18:01;8.73;;;2.08;;
12968;SDS011;6549;53.128;8.182;2023-05-16T06:21:01;9.60;;;1.77;;
12968;SDS011;6549;53.128;8.182;2023-05-16T06:24:02;13.02;;;2.20;;
12968;SDS011;6549;53.128;8.182;2023-05-16T06:27:02;9.60;;;1.80;;
12968;SDS011;6549;53.128;8.182;2023-05-16T06:30:03;10.88;;;1.95;;
12968;SDS011;6549;53.128;8.182;2023-05-16T06:33:04;13.07;;;1.88;;
12968;SDS011;6549;53.128;8.182;2023-05-16T06:36:04;10.20;;;1.90;;
12968;SDS011;6549;53.128;8.182;2023-05-16T06:39:05;11.52;;;1.80;;
12968;SDS011;6549;53.128;8.182;2023-05-16T06:42:05;8.43;;;1.77;;
12968;SDS011;6549;53.128;8.182;2023-05-16T06:45:06;5.00;;;1.83;;
12968;SDS011;6549;53.128;8.182;2023-05-16T06:48:07;8.35;;;2.03;;
12968;SDS011;6549;53.128;8.182;2023-05-16T06:51:07;13.88;;;1.95;;
12968;SDS011;6549;53.128;8.182;2023-05-16T06:54:07;8.75;;;1.70;;
12968;SDS011;6549;53.128;8.182;2023-05-16T06:57:08;10.80;;;1.75;;
12968;SDS011;6549;53.128;8.182;2023-05-16T07:00:08;7.28;;;1.85;;
12968;SDS011;6549;53.128;8.182;2023-05-16T07:03:09;6.65;;;1.42;;
12968;SDS011;6549;53.128;8.182;2023-05-16T07:06:09;5.53;;;1.52;;
12968;SDS011;6549;53.128;8.182;2023-05-16T07:09:09;8.98;;;1.60;;
12968;SDS011;6549;53.128;8.182;2023-05-16T07:12:10;8.82;;;1.60;;
12968;SDS011;6549;53.128;8.182;2023-05-16T07:15:10;9.77;;;2.03;;
12968;SDS011;6549;53.128;8.182;2023-05-16T07:18:11;6.10;;;1.33;;
12968;SDS011;6549;53.128;8.182;2023-05-16T07:21:12;5.25;;;1.60;;
12968;SDS011;6549;53.128;8.182;2023-05-16T07:24:12;7.28;;;1.40;;
12968;SDS011;6549;53.128;8.182;2023-05-16T07:27:12;8.98;;;1.60;;
12968;SDS011;6549;53.128;8.182;2023-05-16T07:30:13;7.78;;;1.85;;
12968;SDS011;6549;53.128;8.182;2023-05-16T07:33:13;9.60;;;1.90;;
12968;SDS011;6549;53.128;8.182;2023-05-16T07:36:14;9.68;;;1.88;;
12968;SDS011;6549;53.128;8.182;2023-05-16T07:39:14;4.95;;;1.58;;
12968;SDS011;6549;53.128;8.182;2023-05-16T07:42:15;8.35;;;1.95;;
12968;SDS011;6549;53.128;8.182;2023-05-16T07:45:15;8.85;;;2.00;;
12968;SDS011;6549;53.128;8.182;2023-05-16T07:48:15;10.90;;;1.90;;
12968;SDS011;6549;53.128;8.182;2023-05-16T07:51:16;7.15;;;1.48;;
12968;SDS011;6549;53.128;8.182;2023-05-16T07:54:16;9.38;;;1.67;;
12968;SDS011;6549;53.128;8.182;2023-05-16T07:57:16;10.50;;;1.67;;
12968;SDS011;6549;53.128;8.182;2023-05-16T08:00:17;9.75;;;1.67;;
12968;SDS011;6549;53.128;8.182;2023-05-16T08:03:18;11.00;;;1.83;;
12968;SDS011;6549;53.128;8.182;2023-05-16T08:06:18;6.88;;;1.30;;
12968;SDS011;6549;53.128;8.182;2023-05-16T08:09:18;7.90;;;1.48;;
12968;SDS011;6549;53.128;8.182;2023-05-16T08:12:19;7.72;;;1.80;;
12968;SDS011;6549;53.128;8.182;2023-05-16T08:15:21;4.25;;;1.30;;
12968;SDS011;6549;53.128;8.182;2023-05-16T08:18:21;5.22;;;1.25;;
12968;SDS011;6549;53.128;8.182;2023-05-16T08:21:22;6.03;;;1.30;;
12968;SDS011;6549;53.128;8.182;2023-05-16T08:24:22;6.93;;;1.40;;
12968;SDS011;6549;53.128;8.182;2023-05-16T08:27:23;6.18;;;1.40;;
12968;SDS011;6549;53.128;8.182;2023-05-16T08:30:24;6.88;;;1.70;;
12968;SDS011;6549;53.128;8.182;2023-05-16T08:33:25;6.57;;;1.73;;
12968;SDS011;6549;53.128;8.182;2023-05-16T08:36:25;10.45;;;1.70;;
12968;SDS011;6549;53.128;8.182;2023-05-16T08:39:26;6.63;;;1.40;;
12968;SDS011;6549;53.128;8.182;2023-05-16T08:42:26;7.93;;;1.38;;
12968;SDS011;6549;53.128;8.182;2023-05-16T08:45:26;8.10;;;1.67;;
12968;SDS011;6549;53.128;8.182;2023-05-16T08:48:27;8.20;;;1.90;;
12968;SDS011;6549;53.128;8.182;2023-05-16T08:51:31;5.57;;;1.65;;
12968;SDS011;6549;53.128;8.182;2023-05-16T08:54:35;6.38;;;1.52;;
12968;SDS011;6549;53.128;8.182;2023-05-16T08:57:36;5.38;;;1.30;;
12968;SDS011;6549;53.128;8.182;2023-05-16T09:00:38;4.30;;;1.40;;
12968;SDS011;6549;53.128;8.182;2023-05-16T09:03:39;6.57;;;1.58;;
12968;SDS011;6549;53.128;8.182;2023-05-16T09:06:39;5.13;;;1.08;;
12968;SDS011;6549;53.128;8.182;2023-05-16T09:09:40;5.30;;;1.30;;
12968;SDS011;6549;53.128;8.182;2023-05-16T09:12:41;8.30;;;1.70;;
12968;SDS011;6549;53.128;8.182;2023-05-16T09:15:42;8.20;;;1.60;;
12968;SDS011;6549;53.128;8.182;2023-05-16T09:18:43;8.30;;;1.33;;
12968;SDS011;6549;53.128;8.182;2023-05-16T09:21:45;7.20;;;1.48;;
12968;SDS011;6549;53.128;8.182;2023-05-16T09:24:46;8.38;;;1.40;;
12968;SDS011;6549;53.128;8.182;2023-05-16T09:27:46;5.97;;;1.60;;
12968;SDS011;6549;53.128;8.182;2023-05-16T09:30:47;8.20;;;1.70;;
12968;SDS011;6549;53.128;8.182;2023-05-16T09:33:48;4.30;;;1.10;;
12968;SDS011;6549;53.128;8.182;2023-05-16T09:36:53;5.72;;;1.27;;
12968;SDS011;6549;53.128;8.182;2023-05-16T09:39:54;2.97;;;1.27;;
12968;SDS011;6549;53.128;8.182;2023-05-16T09:43:01;3.72;;;1.05;;
12968;SDS011;6549;53.128;8.182;2023-05-16T09:46:02;2.95;;;1.08;;
12968;SDS011;6549;53.128;8.182;2023-05-16T09:49:03;3.72;;;1.00;;
12968;SDS011;6549;53.128;8.182;2023-05-16T09:52:04;3.80;;;1.00;;
12968;SDS011;6549;53.128;8.182;2023-05-16T09:55:07;4.18;;;1.10;;
12968;SDS011;6549;53.128;8.182;2023-05-16T09:58:08;3.13;;;0.88;;
12968;SDS011;6549;53.128;8.182;2023-05-16T10:01:09;6.78;;;1.33;;
12968;SDS011;6549;53.128;8.182;2023-05-16T10:04:10;3.50;;;1.02;;
12968;SDS011;6549;53.128;8.182;2023-05-16T10:07:14;4.13;;;1.10;;
12968;SDS011;6549;53.128;8.182;2023-05-16T10:10:15;5.90;;;1.40;;
12968;SDS011;6549;53.128;8.182;2023-05-16T10:13:17;6.10;;;1.58;;
12968;SDS011;6549;53.128;8.182;2023-05-16T10:16:20;6.15;;;1.40;;
12968;SDS011;6549;53.128;8.182;2023-05-16T10:19:22;8.57;;;1.55;;
12968;SDS011;6549;53.128;8.182;2023-05-16T10:22:25;5.60;;;1.35;;
12968;SDS011;6549;53.128;8.182;2023-05-16T10:25:33;6.40;;;1.63;;
12968;SDS011;6549;53.128;8.182;2023-05-16T10:28:37;9.55;;;1.73;;
12968;SDS011;6549;53.128;8.182;2023-05-16T10:31:39;9.15;;;1.40;;
12968;SDS011;6549;53.128;8.182;2023-05-16T10:34:41;7.95;;;1.65;;
12968;SDS011;6549;53.128;8.182;2023-05-16T10:37:42;5.45;;;1.67;;
12968;SDS011;6549;53.128;8.182;2023-05-16T10:40:43;8.07;;;1.95;;
12968;SDS011;6549;53.128;8.182;2023-05-16T10:43:44;10.68;;;1.90;;
12968;SDS011;6549;53.128;8.182;2023-05-16T10:46:56;10.65;;;2.35;;
12968;SDS011;6549;53.128;8.182;2023-05-16T10:49:57;6.97;;;1.93;;
12968;SDS011;6549;53.128;8.182;2023-05-16T10:53:19;6.63;;;1.67;;
12968;SDS011;6549;53.128;8.182;2023-05-16T10:56:21;7.95;;;1.70;;
12968;SDS011;6549;53.128;8.182;2023-05-16T10:59:23;7.00;;;1.67;;
12968;SDS011;6549;53.128;8.182;2023-05-16T11:02:29;7.07;;;1.65;;
12968;SDS011;6549;53.128;8.182;2023-05-16T11:05:33;12.02;;;1.98;;
12968;SDS011;6549;53.128;8.182;2023-05-16T11:08:34;6.93;;;1.70;;
12968;SDS011;6549;53.128;8.182;2023-05-16T11:14:39;6.47;;;1.92;;
12968;SDS011;6549;53.128;8.182;2023-05-16T11:17:44;8.13;;;2.03;;
12968;SDS011;6549;53.128;8.182;2023-05-16T11:20:44;6.80;;;1.75;;
12968;SDS011;6549;53.128;8.182;2023-05-16T11:23:45;9.30;;;2.05;;
12968;SDS011;6549;53.128;8.182;2023-05-16T11:30:36;6.20;;;1.50;;
12968;SDS011;6549;53.128;8.182;2023-05-16T11:33:42;7.82;;;1.77;;
12968;SDS011;6549;53.128;8.182;2023-05-16T11:36:43;6.65;;;2.00;;
12968;SDS011;6549;53.128;8.182;2023-05-16T11:39:44;7.10;;;1.95;;
12968;SDS011;6549;53.128;8.182;2023-05-16T11:42:45;9.73;;;1.73;;
12968;SDS011;6549;53.128;8.182;2023-05-16T11:45:52;7.65;;;1.60;;
12968;SDS011;6549;53.128;8.182;2023-05-16T11:48:53;6.70;;;1.25;;
12968;SDS011;6549;53.128;8.182;2023-05-16T11:51:53;8.20;;;1.55;;
12968;SDS011;6549;53.128;8.182;2023-05-16T11:54:56;9.50;;;1.80;;
12968;SDS011;6549;53.128;8.182;2023-05-16T11:58:00;8.73;;;1.67;;
12968;SDS011;6549;53.128;8.182;2023-05-16T12:01:02;7.00;;;1.77;;
12968;SDS011;6549;53.128;8.182;2023-05-16T12:07:07;7.93;;;1.95;;
12968;SDS011;6549;53.128;8.182;2023-05-16T12:10:09;7.25;;;1.75;;
12968;SDS011;6549;53.128;8.182;2023-05-16T12:13:10;8.02;;;1.65;;
12968;SDS011;6549;53.128;8.182;2023-05-16T12:16:11;7.38;;;1.83;;
12968;SDS011;6549;53.128;8.182;2023-05-16T12:19:12;4.03;;;1.20;;
12968;SDS011;6549;53.128;8.182;2023-05-16T12:22:16;7.22;;;1.70;;
12968;SDS011;6549;53.128;8.182;2023-05-16T12:25:24;8.27;;;1.48;;
12968;SDS011;6549;53.128;8.182;2023-05-16T12:28:32;6.43;;;1.55;;
12968;SDS011;6549;53.128;8.182;2023-05-16T12:31:39;7.45;;;1.67;;
12968;SDS011;6549;53.128;8.182;2023-05-16T12:34:40;7.00;;;1.70;;
12968;SDS011;6549;53.128;8.182;2023-05-16T12:37:48;6.65;;;1.20;;
12968;SDS011;6549;53.128;8.182;2023-05-16T12:40:50;5.47;;;1.10;;
12968;SDS011;6549;53.128;8.182;2023-05-16T12:44:09;6.57;;;1.50;;
12968;SDS011;6549;53.128;8.182;2023-05-16T12:47:16;6.43;;;1.33;;
12968;SDS011;6549;53.128;8.182;2023-05-16T12:50:16;3.60;;;1.10;;
12968;SDS011;6549;53.128;8.182;2023-05-16T12:53:17;3.25;;;1.10;;
12968;SDS011;6549;53.128;8.182;2023-05-16T12:56:18;3.75;;;1.00;;
12968;SDS011;6549;53.128;8.182;2023-05-16T12:59:18;3.42;;;1.08;;
12968;SDS011;6549;53.128;8.182;2023-05-16T13:02:19;3.33;;;1.20;;
12968;SDS011;6549;53.128;8.182;2023-05-16T13:05:21;3.13;;;1.10;;
12968;SDS011;6549;53.128;8.182;2023-05-16T13:08:22;4.28;;;1.20;;
12968;SDS011;6549;53.128;8.182;2023-05-16T13:11:23;3.65;;;1.10;;
12968;SDS011;6549;53.128;8.182;2023-05-16T13:14:24;6.18;;;1.50;;
12968;SDS011;6549;53.128;8.182;2023-05-16T13:17:24;7.53;;;1.55;;
12968;SDS011;6549;53.128;8.182;2023-05-16T13:20:24;5.47;;;1.20;;
12968;SDS011;6549;53.128;8.182;2023-05-16T13:23:25;5.72;;;1.27;;
12968;SDS011;6549;53.128;8.182;2023-05-16T13:26:29;4.93;;;1.35;;
12968;SDS011;6549;53.128;8.182;2023-05-16T13:29:30;6.53;;;1.50;;
12968;SDS011;6549;53.128;8.182;2023-05-16T13:32:31;8.80;;;1.85;;
12968;SDS011;6549;53.128;8.182;2023-05-16T13:35:31;6.03;;;1.42;;
12968;SDS011;6549;53.128;8.182;2023-05-16T13:38:32;7.85;;;1.70;;
12968;SDS011;6549;53.128;8.182;2023-05-16T13:41:32;8.13;;;1.70;;
12968;SDS011;6549;53.128;8.182;2023-05-16T13:44:36;7.38;;;1.67;;
12968;SDS011;6549;53.128;8.182;2023-05-16T13:47:37;7.22;;;1.90;;
12968;SDS011;6549;53.128;8.182;2023-05-16T13:50:37;9.13;;;1.85;;
12968;SDS011;6549;53.128;8.182;2023-05-16T13:53:38;4.63;;;1.50;;
12968;SDS011;6549;53.128;8.182;2023-05-16T13:56:38;7.32;;;2.13;;
12968;SDS011;6549;53.128;8.182;2023-05-16T13:59:39;11.20;;;1.90;;
12968;SDS011;6549;53.128;8.182;2023-05-16T14:02:39;8.10;;;2.03;;
12968;SDS011;6549;53.128;8.182;2023-05-16T14:05:40;7.40;;;2.03;;
12968;SDS011;6549;53.128;8.182;2023-05-16T14:08:41;10.48;;;2.00;;
12968;SDS011;6549;53.128;8.182;2023-05-16T14:11:41;8.63;;;1.83;;
12968;SDS011;6549;53.128;8.182;2023-05-16T14:14:41;8.90;;;2.10;;
12968;SDS011;6549;53.128;8.182;2023-05-16T14:17:42;8.90;;;2.10;;
12968;SDS011;6549;53.128;8.182;2023-05-16T14:20:42;7.57;;;2.15;;
12968;SDS011;6549;53.128;8.182;2023-05-16T14:23:43;8.43;;;2.20;;
12968;SDS011;6549;53.128;8.182;2023-05-16T14:26:44;10.60;;;2.20;;
12968;SDS011;6549;53.128;8.182;2023-05-16T14:29:44;9.10;;;2.10;;
12968;SDS011;6549;53.128;8.182;2023-05-16T14:32:47;8.23;;;2.17;;
12968;SDS011;6549;53.128;8.182;2023-05-16T14:35:48;7.88;;;2.42;;
12968;SDS011;6549;53.128;8.182;2023-05-16T14:38:49;11.40;;;2.13;;
12968;SDS011;6549;53.128;8.182;2023-05-16T14:41:49;8.65;;;2.50;;
12968;SDS011;6549;53.128;8.182;2023-05-16T14:44:49;6.25;;;1.83;;
12968;SDS011;6549;53.128;8.182;2023-05-16T14:47:50;6.15;;;2.50;;
12968;SDS011;6549;53.128;8.182;2023-05-16T14:50:51;9.63;;;2.47;;
12968;SDS011;6549;53.128;8.182;2023-05-16T14:53:52;8.30;;;2.70;;
12968;SDS011;6549;53.128;8.182;2023-05-16T14:56:52;8.10;;;2.63;;
12968;SDS011;6549;53.128;8.182;2023-05-16T14:59:52;9.57;;;2.50;;
12968;SDS011;6549;53.128;8.182;2023-05-16T15:02:52;10.93;;;2.58;;
12968;SDS011;6549;53.128;8.182;2023-05-16T15:05:53;9.30;;;2.35;;
12968;SDS011;6549;53.128;8.182;2023-05-16T15:08:54;7.63;;;2.30;;
12968;SDS011;6549;53.128;8.182;2023-05-16T15:11:54;9.02;;;2.72;;
12968;SDS011;6549;53.128;8.182;2023-05-16T15:14:54;7.43;;;2.00;;
12968;SDS011;6549;53.128;8.182;2023-05-16T15:17:55;10.40;;;2.40;;
12968;SDS011;6549;53.128;8.182;2023-05-16T15:20:55;6.63;;;2.42;;
12968;SDS011;6549;53.128;8.182;2023-05-16T15:23:55;9.20;;;2.50;;
12968;SDS011;6549;53.128;8.182;2023-05-16T15:26:56;8.23;;;2.53;;
12968;SDS011;6549;53.128;8.182;2023-05-16T15:29:56;12.27;;;3.22;;
12968;SDS011;6549;53.128;8.182;2023-05-16T15:32:57;8.70;;;2.47;;
12968;SDS011;6549;53.128;8.182;2023-05-16T15:35:57;6.32;;;2.33;;
12968;SDS011;6549;53.128;8.182;2023-05-16T15:38:58;7.85;;;2.78;;
12968;SDS011;6549;53.128;8.182;2023-05-16T15:41:58;9.63;;;2.85;;
12968;SDS011;6549;53.128;8.182;2023-05-16T15:44:58;9.60;;;2.85;;
12968;SDS011;6549;53.128;8.182;2023-05-16T15:47:59;7.82;;;2.83;;
12968;SDS011;6549;53.128;8.182;2023-05-16T15:50:59;8.80;;;2.92;;
12968;SDS011;6549;53.128;8.182;2023-05-16T15:54:00;9.85;;;3.15;;
12968;SDS011;6549;53.128;8.182;2023-05-16T15:57:01;7.13;;;2.40;;
12968;SDS011;6549;53.128;8.182;2023-05-16T16:00:01;6.05;;;2.60;;
12968;SDS011;6549;53.128;8.182;2023-05-16T16:03:02;7.43;;;2.63;;
12968;SDS011;6549;53.128;8.182;2023-05-16T16:06:03;6.82;;;2.75;;
12968;SDS011;6549;53.128;8.182;2023-05-16T16:09:03;5.55;;;2.75;;
12968;SDS011;6549;53.128;8.182;2023-05-16T16:12:04;6.72;;;3.00;;
12968;SDS011;6549;53.128;8.182;2023-05-16T16:15:05;7.25;;;3.00;;
12968;SDS011;6549;53.128;8.182;2023-05-16T16:18:05;6.35;;;2.90;;
12968;SDS011;6549;53.128;8.182;2023-05-16T16:21:06;8.65;;;3.60;;
12968;SDS011;6549;53.128;8.182;2023-05-16T16:24:06;10.52;;;3.22;;
12968;SDS011;6549;53.128;8.182;2023-05-16T16:27:07;10.48;;;3.53;;
12968;SDS011;6549;53.128;8.182;2023-05-16T16:30:08;11.30;;;3.55;;
12968;SDS011;6549;53.128;8.182;2023-05-16T16:33:08;9.93;;;3.58;;
12968;SDS011;6549;53.128;8.182;2023-05-16T16:36:09;7.75;;;3.60;;
12968;SDS011;6549;53.128;8.182;2023-05-16T16:39:10;6.65;;;3.50;;
12968;SDS011;6549;53.128;8.182;2023-05-16T16:42:10;7.25;;;3.30;;
12968;SDS011;6549;53.128;8.182;2023-05-16T16:45:11;8.73;;;3.25;;
12968;SDS011;6549;53.128;8.182;2023-05-16T16:48:11;7.78;;;3.00;;
12968;SDS011;6549;53.128;8.182;2023-05-16T16:51:11;5.82;;;3.10;;
12968;SDS011;6549;53.128;8.182;2023-05-16T16:54:12;9.68;;;3.67;;
12968;SDS011;6549;53.128;8.182;2023-05-16T16:57:12;8.98;;;3.42;;
12968;SDS011;6549;53.128;8.182;2023-05-16T17:00:12;7.57;;;3.20;;
12968;SDS011;6549;53.128;8.182;2023-05-16T17:03:14;7.53;;;3.33;;
12968;SDS011;6549;53.128;8.182;2023-05-16T17:06:14;10.15;;;3.30;;
12968;SDS011;6549;53.128;8.182;2023-05-16T17:09:17;7.90;;;3.30;;
12968;SDS011;6549;53.128;8.182;2023-05-16T17:12:18;9.38;;;3.13;;
12968;SDS011;6549;53.128;8.182;2023-05-16T17:15:19;6.18;;;3.08;;
12968;SDS011;6549;53.128;8.182;2023-05-16T17:18:19;9.13;;;2.97;;
12968;SDS011;6549;53.128;8.182;2023-05-16T17:21:20;10.50;;;3.13;;
12968;SDS011;6549;53.128;8.182;2023-05-16T17:24:21;7.50;;;2.83;;
12968;SDS011;6549;53.128;8.182;2023-05-16T17:27:21;8.90;;;3.20;;
12968;SDS011;6549;53.128;8.182;2023-05-16T17:30:21;8.77;;;2.80;;
12968;SDS011;6549;53.128;8.182;2023-05-16T17:33:22;9.52;;;3.25;;
12968;SDS011;6549;53.128;8.182;2023-05-16T17:36:23;8.48;;;2.90;;
12968;SDS011;6549;53.128;8.182;2023-05-16T17:39:23;6.03;;;2.42;;
12968;SDS011;6549;53.128;8.182;2023-05-16T17:42:23;9.07;;;3.10;;
12968;SDS011;6549;53.128;8.182;2023-05-16T17:45:24;8.30;;;2.80;;
12968;SDS011;6549;53.128;8.182;2023-05-16T17:48:24;9.73;;;2.80;;
12968;SDS011;6549;53.128;8.182;2023-05-16T17:51:25;6.82;;;2.80;;
12968;SDS011;6549;53.128;8.182;2023-05-16T17:54:25;9.75;;;2.70;;
12968;SDS011;6549;53.128;8.182;2023-05-16T17:57:29;7.10;;;3.13;;
12968;SDS011;6549;53.128;8.182;2023-05-16T18:00:30;14.60;;;3.53;;
12968;SDS011;6549;53.128;8.182;2023-05-16T18:03:30;9.88;;;3.25;;
12968;SDS011;6549;53.128;8.182;2023-05-16T18:06:31;11.48;;;3.10;;
12968;SDS011;6549;53.128;8.182;2023-05-16T18:09:32;8.63;;;3.17;;
12968;SDS011;6549;53.128;8.182;2023-05-16T18:12:32;9.10;;;2.63;;
12968;SDS011;6549;53.128;8.182;2023-05-16T18:15:33;5.68;;;2.53;;
12968;SDS011;6549;53.128;8.182;2023-05-16T18:18:36;11.02;;;2.90;;
12968;SDS011;6549;53.128;8.182;2023-05-16T18:21:38;10.95;;;3.00;;
12968;SDS011;6549;53.128;8.182;2023-05-16T18:24:38;11.73;;;2.80;;
12968;SDS011;6549;53.128;8.182;2023-05-16T18:27:39;10.20;;;2.67;;
12968;SDS011;6549;53.128;8.182;2023-05-16T18:30:39;9.48;;;2.90;;
12968;SDS011;6549;53.128;8.182;2023-05-16T18:33:40;7.90;;;2.63;;
12968;SDS011;6549;53.128;8.182;2023-05-16T18:36:40;6.70;;;2.45;;
12968;SDS011;6549;53.128;8.182;2023-05-16T18:39:41;7.15;;;2.63;;
12968;SDS011;6549;53.128;8.182;2023-05-16T18:42:45;8.02;;;2.50;;
12968;SDS011;6549;53.128;8.182;2023-05-16T18:45:45;8.77;;;2.85;;